Time;durP1;ratioP1;P1;durP2;ratioP2;P2;SDS_P1;SDS_P2;PMS_P1;PMS_P2;Temp;Humidity;BMP_temperature;BMP_pressure;BME280_temperature;BME280_humidity;BME280_pressure;Samples;Min_cycle;Max_cycle;Signal;HPM_P1;HPM_P2
2021/10/15 00:00:19;;;;;;;5.95;3.10;;;;;;;;;;5076361;28;20025;-73
2021/10/15 00:02:45;;;;;;;6.45;3.13;;;;;;;;;;5074634;28;20065;-73
2021/10/15 00:05:11;;;;;;;5.18;2.85;;;;;;;;;;5076087;28;20525;-72
2021/10/15 00:07:38;;;;;;;5.30;2.70;;;;;;;;;;5076592;28;20024;-72
2021/10/15 00:10:04;;;;;;;5.78;2.88;;;;;;;;;;5074465;28;20032;-72
2021/10/15 00:12:31;;;;;;;6.07;2.60;;;;;;;;;;5076179;28;20088;-72
2021/10/15 00:14:57;;;;;;;4.22;2.28;;;;;;;;;;5076022;28;20020;-74
2021/10/15 00:17:23;;;;;;;5.80;2.53;;;;;;;;;;5074377;28;20128;-73
2021/10/15 00:19:49;;;;;;;4.72;2.53;;;;;;;;;;5076359;28;20383;-73
2021/10/15 00:22:15;;;;;;;5.82;2.80;;;;;;;;;;5075985;28;20052;-73
2021/10/15 00:24:41;;;;;;;5.53;2.17;;;;;;;;;;5075551;28;20039;-73
2021/10/15 00:27:08;;;;;;;4.90;2.60;;;;;;;;;;5075867;28;20025;-74
2021/10/15 00:29:34;;;;;;;5.43;2.38;;;;;;;;;;5074634;28;20024;-74
2021/10/15 00:32:00;;;;;;;5.05;2.50;;;;;;;;;;5074113;28;20027;-74
2021/10/15 00:34:26;;;;;;;3.97;2.28;;;;;;;;;;5074436;28;20112;-74
2021/10/15 00:36:52;;;;;;;4.47;2.22;;;;;;;;;;5075749;28;20549;-74
2021/10/15 00:39:18;;;;;;;5.43;2.55;;;;;;;;;;5075261;28;20020;-73
2021/10/15 00:41:45;;;;;;;3.67;2.05;;;;;;;;;;5075830;28;20028;-73
2021/10/15 00:44:12;;;;;;;3.55;2.17;;;;;;;;;;5075623;28;20473;-73
2021/10/15 00:46:39;;;;;;;4.68;2.20;;;;;;;;;;5075290;28;20020;-74
2021/10/15 00:49:07;;;;;;;4.18;1.90;;;;;;;;;;5075144;28;20494;-73
2021/10/15 00:51:33;;;;;;;6.40;2.95;;;;;;;;;;5074175;28;20036;-73
2021/10/15 00:54:00;;;;;;;5.22;2.35;;;;;;;;;;5075049;28;20069;-73
2021/10/15 00:56:28;;;;;;;6.35;2.38;;;;;;;;;;5075248;28;20104;-73
2021/10/15 00:58:54;;;;;;;5.43;2.47;;;;;;;;;;5074944;28;20021;-73
2021/10/15 01:01:20;;;;;;;4.50;2.20;;;;;;;;;;5073987;28;20512;-73
2021/10/15 01:03:47;;;;;;;4.78;2.45;;;;;;;;;;5075276;28;20031;-74
2021/10/15 01:06:13;;;;;;;4.72;2.40;;;;;;;;;;5074654;28;20049;-73
2021/10/15 01:08:41;;;;;;;6.00;3.00;;;;;;;;;;5075528;28;20025;-73
2021/10/15 01:11:07;;;;;;;5.55;2.78;;;;;;;;;;5075118;28;20024;-73
2021/10/15 01:13:34;;;;;;;5.82;2.72;;;;;;;;;;5074809;28;20028;-73
2021/10/15 01:16:06;;;;;;;4.35;2.28;;;;;;;;;;5076921;28;20056;-73
2021/10/15 01:18:33;;;;;;;5.65;2.65;;;;;;;;;;5082196;28;20056;-73
2021/10/15 01:20:59;;;;;;;5.60;2.75;;;;;;;;;;5075439;28;20020;-73
2021/10/15 01:23:25;;;;;;;4.15;2.42;;;;;;;;;;5074953;28;20486;-73
2021/10/15 01:25:53;;;;;;;4.07;2.33;;;;;;;;;;5075324;28;20028;-73
2021/10/15 01:28:20;;;;;;;4.75;2.47;;;;;;;;;;5074737;28;20020;-73
2021/10/15 01:30:46;;;;;;;5.30;2.50;;;;;;;;;;5074946;28;20035;-74
2021/10/15 01:33:13;;;;;;;4.72;2.50;;;;;;;;;;5075328;28;20028;-74
2021/10/15 01:35:39;;;;;;;4.53;2.15;;;;;;;;;;5075049;28;20086;-75
2021/10/15 01:38:05;;;;;;;5.53;2.78;;;;;;;;;;5074285;28;20048;-74
2021/10/15 01:40:31;;;;;;;3.95;2.25;;;;;;;;;;5075305;28;20028;-73
2021/10/15 01:42:57;;;;;;;4.07;2.45;;;;;;;;;;5074369;28;20017;-73
2021/10/15 01:45:24;;;;;;;4.40;2.42;;;;;;;;;;5074417;28;20024;-73
2021/10/15 01:47:51;;;;;;;4.53;2.28;;;;;;;;;;5073037;28;20119;-73
2021/10/15 01:50:17;;;;;;;4.93;2.47;;;;;;;;;;5072550;28;20031;-73
2021/10/15 01:52:44;;;;;;;4.65;2.63;;;;;;;;;;5074289;28;20078;-73
2021/10/15 01:55:10;;;;;;;3.75;1.95;;;;;;;;;;5073744;28;20028;-74
2021/10/15 01:57:37;;;;;;;5.28;2.38;;;;;;;;;;5072913;28;20115;-73
2021/10/15 02:00:04;;;;;;;3.88;1.90;;;;;;;;;;5073373;28;20389;-73
2021/10/15 02:02:31;;;;;;;3.00;1.88;;;;;;;;;;5073626;28;20024;-73
2021/10/15 02:04:57;;;;;;;4.07;2.20;;;;;;;;;;5072557;28;20035;-73
2021/10/15 02:07:23;;;;;;;4.55;2.08;;;;;;;;;;5073905;28;20028;-73
2021/10/15 02:09:49;;;;;;;4.40;2.08;;;;;;;;;;5073540;28;20054;-73
2021/10/15 02:12:16;;;;;;;5.32;2.60;;;;;;;;;;5073909;28;20025;-73
2021/10/15 02:14:42;;;;;;;4.00;1.90;;;;;;;;;;5073714;28;20074;-73
2021/10/15 02:17:08;;;;;;;5.88;2.47;;;;;;;;;;5073428;28;20486;-73
2021/10/15 02:19:34;;;;;;;4.90;2.17;;;;;;;;;;5073753;28;20039;-73
2021/10/15 02:22:01;;;;;;;3.63;1.73;;;;;;;;;;5073735;28;20383;-73
2021/10/15 02:24:27;;;;;;;4.75;2.58;;;;;;;;;;5073572;28;20052;-73
2021/10/15 02:26:53;;;;;;;4.85;1.92;;;;;;;;;;5073655;28;20036;-74
2021/10/15 02:29:20;;;;;;;2.47;1.48;;;;;;;;;;5073645;28;20049;-73
2021/10/15 02:31:46;;;;;;;4.10;2.20;;;;;;;;;;5071950;28;20039;-74
2021/10/15 02:34:12;;;;;;;4.50;1.80;;;;;;;;;;5073651;28;20432;-74
2021/10/15 02:36:38;;;;;;;4.07;1.95;;;;;;;;;;5073594;28;20039;-74
2021/10/15 02:39:05;;;;;;;2.33;1.42;;;;;;;;;;5073173;28;20020;-74
2021/10/15 02:41:31;;;;;;;3.38;1.55;;;;;;;;;;5074254;28;20362;-73
2021/10/15 02:43:57;;;;;;;3.30;1.50;;;;;;;;;;5073731;28;20016;-74
2021/10/15 02:46:23;;;;;;;2.03;1.30;;;;;;;;;;5073015;28;20031;-73
2021/10/15 02:48:49;;;;;;;3.22;1.80;;;;;;;;;;5073528;28;20382;-74
2021/10/15 02:51:16;;;;;;;1.98;1.52;;;;;;;;;;5073438;28;20095;-74
2021/10/15 02:53:42;;;;;;;4.38;1.85;;;;;;;;;;5072966;28;20477;-74
2021/10/15 02:56:08;;;;;;;3.75;1.60;;;;;;;;;;5071969;28;20398;-74
2021/10/15 02:58:34;;;;;;;3.05;1.63;;;;;;;;;;5071705;28;20040;-74
2021/10/15 03:01:01;;;;;;;4.50;1.60;;;;;;;;;;5073236;28;20122;-74
2021/10/15 03:03:27;;;;;;;3.05;1.67;;;;;;;;;;5073227;28;20516;-73
2021/10/15 03:05:53;;;;;;;2.20;1.40;;;;;;;;;;5071296;28;20055;-74
2021/10/15 03:08:19;;;;;;;3.28;1.55;;;;;;;;;;5073519;28;20021;-73
2021/10/15 03:10:45;;;;;;;3.40;1.35;;;;;;;;;;5073964;28;20471;-74
2021/10/15 03:13:11;;;;;;;2.53;1.50;;;;;;;;;;5076949;28;20053;-74
2021/10/15 03:15:38;;;;;;;2.60;1.35;;;;;;;;;;5077191;28;20044;-73
2021/10/15 03:18:04;;;;;;;2.47;1.40;;;;;;;;;;5077246;28;20028;-73
2021/10/15 03:20:30;;;;;;;1.63;1.05;;;;;;;;;;5076983;28;20024;-74
2021/10/15 03:22:56;;;;;;;5.15;1.70;;;;;;;;;;5077152;28;20028;-74
2021/10/15 03:25:22;;;;;;;3.72;1.80;;;;;;;;;;5077112;28;20028;-73
2021/10/15 03:27:48;;;;;;;6.22;2.00;;;;;;;;;;5076721;28;20016;-74
2021/10/15 03:30:15;;;;;;;5.00;1.75;;;;;;;;;;5077225;28;20025;-74
2021/10/15 03:32:41;;;;;;;4.22;1.65;;;;;;;;;;5077235;28;20089;-74
2021/10/15 03:35:07;;;;;;;2.45;1.20;;;;;;;;;;5076564;28;20029;-75
2021/10/15 03:37:33;;;;;;;3.85;1.77;;;;;;;;;;5076949;28;20506;-74
2021/10/15 03:40:00;;;;;;;3.42;1.55;;;;;;;;;;5076892;28;20107;-74
2021/10/15 03:42:26;;;;;;;4.20;1.60;;;;;;;;;;5076425;28;20028;-74
2021/10/15 03:44:52;;;;;;;4.35;1.88;;;;;;;;;;5076689;28;20048;-74
2021/10/15 03:47:18;;;;;;;2.97;1.38;;;;;;;;;;5075445;28;20021;-73
2021/10/15 03:49:44;;;;;;;2.05;1.15;;;;;;;;;;5074931;28;20032;-73
2021/10/15 03:52:10;;;;;;;1.92;1.05;;;;;;;;;;5076594;28;20020;-74
2021/10/15 03:54:37;;;;;;;6.70;3.90;;;;;;;;;;5075438;28;20470;-74
2021/10/15 03:57:03;;;;;;;1.85;1.13;;;;;;;;;;5076092;28;20033;-74
2021/10/15 03:59:29;;;;;;;1.05;0.73;;;;;;;;;;5076412;28;20021;-74
2021/10/15 04:01:55;;;;;;;1.90;1.15;;;;;;;;;;5076095;28;20024;-74
2021/10/15 04:04:21;;;;;;;1.42;0.93;;;;;;;;;;5076347;28;20047;-74
2021/10/15 04:06:48;;;;;;;1.40;0.55;;;;;;;;;;5074845;28;20567;-76
2021/10/15 04:09:14;;;;;;;1.77;1.00;;;;;;;;;;5075854;28;20051;-73
2021/10/15 04:11:40;;;;;;;1.23;0.80;;;;;;;;;;5076201;28;20039;-75
2021/10/15 04:14:06;;;;;;;1.45;0.80;;;;;;;;;;5076511;28;20482;-74
2021/10/15 04:16:33;;;;;;;1.75;0.82;;;;;;;;;;5075665;28;20040;-74
2021/10/15 04:18:59;;;;;;;1.73;0.50;;;;;;;;;;5076127;28;20020;-74
2021/10/15 04:21:26;;;;;;;1.45;0.60;;;;;;;;;;5074791;28;20025;-74
2021/10/15 04:23:52;;;;;;;1.52;0.82;;;;;;;;;;5074945;28;20027;-75
2021/10/15 04:26:19;;;;;;;0.77;0.60;;;;;;;;;;5076211;28;20020;-74
2021/10/15 04:28:45;;;;;;;0.65;0.50;;;;;;;;;;5075951;28;20097;-74
2021/10/15 04:31:11;;;;;;;0.77;0.60;;;;;;;;;;5075621;28;20394;-75
2021/10/15 04:33:37;;;;;;;1.65;0.80;;;;;;;;;;5075857;28;20437;-75
2021/10/15 04:36:04;;;;;;;1.95;0.70;;;;;;;;;;5074457;28;20128;-74
2021/10/15 04:38:30;;;;;;;1.60;0.60;;;;;;;;;;5075441;28;20386;-75
2021/10/15 04:40:56;;;;;;;1.40;0.73;;;;;;;;;;5075604;28;20024;-75
2021/10/15 04:43:23;;;;;;;1.00;0.52;;;;;;;;;;5086407;28;20024;-74
2021/10/15 04:45:49;;;;;;;7.45;2.70;;;;;;;;;;5091412;28;20021;-75
2021/10/15 04:48:15;;;;;;;4.18;1.60;;;;;;;;;;5078274;28;20031;-74
2021/10/15 04:50:42;;;;;;;4.13;1.77;;;;;;;;;;5075577;28;20039;-74
2021/10/15 04:53:08;;;;;;;1.52;1.00;;;;;;;;;;5075247;28;20020;-74
2021/10/15 04:55:35;;;;;;;3.65;1.98;;;;;;;;;;5075304;28;20032;-74
2021/10/15 04:58:02;;;;;;;2.35;1.30;;;;;;;;;;5074988;28;20473;-74
2021/10/15 05:00:29;;;;;;;2.08;1.00;;;;;;;;;;5074102;28;20031;-74
2021/10/15 05:02:55;;;;;;;3.47;1.70;;;;;;;;;;5073943;28;20020;-74
2021/10/15 05:05:26;;;;;;;3.10;1.35;;;;;;;;;;5074538;28;20110;-74
2021/10/15 05:07:53;;;;;;;1.80;1.20;;;;;;;;;;5073643;28;20429;-74
2021/10/15 05:10:22;;;;;;;2.00;0.98;;;;;;;;;;5074960;28;20082;-74
2021/10/15 05:12:53;;;;;;;2.38;1.20;;;;;;;;;;5074483;28;20036;-75
2021/10/15 05:15:20;;;;;;;2.88;1.23;;;;;;;;;;5073516;28;20060;-74
2021/10/15 05:17:47;;;;;;;5.30;1.75;;;;;;;;;;5074456;28;20481;-70
2021/10/15 05:20:15;;;;;;;3.30;1.60;;;;;;;;;;5071128;28;20039;-70
2021/10/15 05:22:45;;;;;;;3.58;1.48;;;;;;;;;;5074417;28;20024;-72
2021/10/15 05:25:12;;;;;;;4.43;1.83;;;;;;;;;;5071933;28;20029;-73
2021/10/15 05:27:38;;;;;;;3.92;1.63;;;;;;;;;;5072337;28;20491;-74
2021/10/15 05:30:06;;;;;;;4.18;1.70;;;;;;;;;;5074447;28;20016;-71
2021/10/15 05:32:32;;;;;;;8.02;2.30;;;;;;;;;;5073659;28;20032;-71
2021/10/15 05:34:58;;;;;;;4.65;1.95;;;;;;;;;;5072759;28;20020;-69
2021/10/15 05:37:24;;;;;;;6.82;2.78;;;;;;;;;;5071726;28;20068;-72
2021/10/15 05:39:50;;;;;;;2.97;1.73;;;;;;;;;;5073213;28;20027;-72
2021/10/15 05:42:17;;;;;;;3.53;1.67;;;;;;;;;;5068888;28;20024;-69
2021/10/15 05:44:43;;;;;;;4.13;2.05;;;;;;;;;;5068307;28;20112;-70
2021/10/15 05:47:10;;;;;;;3.15;1.60;;;;;;;;;;5059350;28;20033;-69
2021/10/15 05:49:39;;;;;;;5.45;2.30;;;;;;;;;;5062829;28;20008;-70
2021/10/15 05:52:08;;;;;;;6.13;2.40;;;;;;;;;;5059179;28;20466;-70
2021/10/15 05:59:39;;;;;;;8.10;3.00;;;;;;;;;;5071749;28;20021;-71
2021/10/15 06:02:07;;;;;;;9.50;4.70;;;;;;;;;;5053446;28;20033;-69
2021/10/15 06:15:27;;;;;;;5.65;2.80;;;;;;;;;;5052866;28;20079;-70
2021/10/15 06:17:53;;;;;;;8.40;2.85;;;;;;;;;;5062144;28;20021;-70
2021/10/15 06:20:19;;;;;;;7.47;2.65;;;;;;;;;;5071602;28;20435;-70
2021/10/15 06:22:46;;;;;;;6.07;2.72;;;;;;;;;;5071573;28;20036;-69
2021/10/15 06:25:12;;;;;;;5.93;2.50;;;;;;;;;;5070841;28;20028;-68
2021/10/15 06:27:38;;;;;;;6.15;2.97;;;;;;;;;;5070240;28;20020;-70
2021/10/15 06:30:05;;;;;;;7.60;3.70;;;;;;;;;;5071928;28;20094;-72
2021/10/15 06:32:31;;;;;;;11.73;5.30;;;;;;;;;;5072573;28;20024;-74
2021/10/15 06:34:57;;;;;;;7.88;3.95;;;;;;;;;;5063520;28;20028;-74
2021/10/15 06:37:24;;;;;;;9.82;5.35;;;;;;;;;;5064022;28;20677;-75
2021/10/15 06:39:51;;;;;;;9.77;4.72;;;;;;;;;;5070567;28;20274;-78
2021/10/15 06:42:18;;;;;;;8.00;3.55;;;;;;;;;;5071946;28;20029;-78
2021/10/15 06:44:44;;;;;;;8.48;4.03;;;;;;;;;;5070056;28;20029;-78
2021/10/15 06:47:10;;;;;;;8.73;4.47;;;;;;;;;;5059047;28;20124;-77
2021/10/15 06:49:36;;;;;;;7.95;3.88;;;;;;;;;;5062988;28;20017;-77
2021/10/15 06:52:03;;;;;;;7.47;3.60;;;;;;;;;;5052238;28;20379;-76
2021/10/15 06:54:29;;;;;;;7.95;3.72;;;;;;;;;;5052898;28;20021;-80
2021/10/15 06:56:55;;;;;;;9.60;4.35;;;;;;;;;;5052192;28;20063;-74
2021/10/15 06:59:22;;;;;;;8.57;4.43;;;;;;;;;;5052872;28;20025;-74
2021/10/15 07:01:48;;;;;;;8.68;4.90;;;;;;;;;;5053302;28;20100;-74
2021/10/15 07:04:14;;;;;;;9.15;5.05;;;;;;;;;;5053424;28;20038;-76
2021/10/15 07:06:43;;;;;;;8.23;4.28;;;;;;;;;;5053411;28;20049;-76
2021/10/15 07:09:11;;;;;;;9.07;4.80;;;;;;;;;;5065095;28;20054;-78
2021/10/15 07:11:38;;;;;;;7.07;3.40;;;;;;;;;;5072390;28;20537;-73
2021/10/15 07:14:05;;;;;;;5.60;3.35;;;;;;;;;;5072670;28;20020;-75
2021/10/15 07:16:32;;;;;;;8.18;3.58;;;;;;;;;;5073917;28;20032;-75
2021/10/15 07:18:59;;;;;;;5.50;3.13;;;;;;;;;;5072037;28;20029;-78
2021/10/15 07:21:25;;;;;;;12.93;7.50;;;;;;;;;;5069578;28;20024;-75
2021/10/15 07:23:52;;;;;;;10.88;5.30;;;;;;;;;;5047336;28;20024;-75
2021/10/15 07:26:18;;;;;;;8.27;5.05;;;;;;;;;;5070078;28;20162;-75
2021/10/15 07:28:45;;;;;;;9.30;4.30;;;;;;;;;;5071432;28;20021;-75
2021/10/15 07:31:11;;;;;;;8.18;3.88;;;;;;;;;;5071716;28;20025;-74
2021/10/15 07:33:37;;;;;;;9.90;5.22;;;;;;;;;;5071458;28;20024;-78
2021/10/15 07:36:03;;;;;;;12.93;7.55;;;;;;;;;;5067286;28;20029;-75
2021/10/15 07:38:30;;;;;;;15.75;9.52;;;;;;;;;;5072057;28;20390;-70
2021/10/15 07:40:56;;;;;;;12.52;6.40;;;;;;;;;;5070571;28;20024;-72
2021/10/15 07:43:22;;;;;;;15.07;9.23;;;;;;;;;;5072183;28;20429;-75
2021/10/15 07:45:48;;;;;;;11.25;6.82;;;;;;;;;;5072597;28;20096;-78
2021/10/15 07:48:14;;;;;;;8.52;4.55;;;;;;;;;;5072130;28;20020;-74
2021/10/15 07:50:41;;;;;;;7.80;4.28;;;;;;;;;;5072292;28;20034;-72
2021/10/15 07:53:07;;;;;;;9.13;5.30;;;;;;;;;;5072226;28;20021;-71
2021/10/15 07:55:33;;;;;;;7.53;4.32;;;;;;;;;;5065319;28;20504;-73
2021/10/15 07:58:00;;;;;;;11.13;5.82;;;;;;;;;;5071253;28;20033;-70
2021/10/15 08:00:26;;;;;;;11.85;6.43;;;;;;;;;;5074214;28;20078;-73
2021/10/15 08:02:53;;;;;;;15.98;7.25;;;;;;;;;;5074250;28;20104;-74
2021/10/15 08:05:19;;;;;;;17.50;9.32;;;;;;;;;;5073505;28;20109;-71
2021/10/15 08:07:46;;;;;;;14.60;8.30;;;;;;;;;;5074729;28;20032;-72
2021/10/15 08:10:12;;;;;;;10.85;6.07;;;;;;;;;;5058656;28;20028;-75
2021/10/15 08:12:39;;;;;;;13.77;7.55;;;;;;;;;;5053026;28;20083;-74
2021/10/15 08:15:06;;;;;;;13.77;6.75;;;;;;;;;;5054405;28;20147;-75
2021/10/15 08:17:32;;;;;;;8.93;4.35;;;;;;;;;;5067264;28;20021;-74
2021/10/15 08:19:58;;;;;;;12.85;5.85;;;;;;;;;;5072053;28;20029;-75
2021/10/15 08:22:27;;;;;;;9.43;5.55;;;;;;;;;;5070461;28;20060;-76
2021/10/15 08:24:56;;;;;;;9.45;5.00;;;;;;;;;;5067341;28;20024;-74
2021/10/15 08:27:23;;;;;;;11.75;6.60;;;;;;;;;;5052374;28;20111;-76
2021/10/15 08:29:49;;;;;;;10.40;5.47;;;;;;;;;;5053825;28;20074;-75
2021/10/15 08:32:15;;;;;;;12.52;6.65;;;;;;;;;;5065484;28;20441;-74
2021/10/15 08:34:41;;;;;;;8.32;4.65;;;;;;;;;;5051706;28;20024;-75
2021/10/15 08:37:08;;;;;;;9.40;4.65;;;;;;;;;;5052942;28;20029;-74
2021/10/15 08:39:34;;;;;;;11.48;5.88;;;;;;;;;;5054465;28;20021;-75
2021/10/15 08:42:00;;;;;;;10.88;5.93;;;;;;;;;;5052743;28;20029;-75
2021/10/15 08:44:37;;;;;;;7.55;4.45;;;;;;;;;;5053233;28;20017;-77
2021/10/15 08:47:04;;;;;;;7.78;4.07;;;;;;;;;;5053600;28;20489;-74
2021/10/15 08:49:31;;;;;;;8.57;4.82;;;;;;;;;;5058318;28;20020;-76
2021/10/15 08:51:57;;;;;;;8.38;3.95;;;;;;;;;;5073951;28;20020;-75
2021/10/15 08:54:23;;;;;;;7.15;4.32;;;;;;;;;;5074679;28;20383;-75
2021/10/15 08:56:50;;;;;;;7.78;4.40;;;;;;;;;;5074183;28;20044;-75
2021/10/15 08:59:20;;;;;;;10.82;5.28;;;;;;;;;;5057542;28;20584;-74
2021/10/15 09:01:49;;;;;;;10.63;4.90;;;;;;;;;;5050414;28;20078;-74
2021/10/15 09:04:20;;;;;;;8.68;4.28;;;;;;;;;;5053335;28;20079;-76
2021/10/15 09:06:48;;;;;;;9.32;4.68;;;;;;;;;;5052120;28;20049;-76
2021/10/15 09:09:15;;;;;;;7.97;4.07;;;;;;;;;;5059923;28;20423;-75
2021/10/15 09:11:41;;;;;;;7.70;3.92;;;;;;;;;;5073040;28;20100;-78
2021/10/15 09:14:10;;;;;;;7.85;4.20;;;;;;;;;;5067441;28;20449;-77
2021/10/15 09:16:59;;;;;;;9.73;5.10;;;;;;;;;;5054130;28;20040;-75
2021/10/15 09:19:34;;;;;;;9.32;4.97;;;;;;;;;;5043820;28;20475;-74
2021/10/15 09:22:08;;;;;;;9.55;5.82;;;;;;;;;;5054979;28;20032;-76
2021/10/15 09:24:47;;;;;;;10.02;5.55;;;;;;;;;;5054236;28;20017;-75
2021/10/15 09:27:18;;;;;;;7.15;3.75;;;;;;;;;;5052775;28;20158;-74
2021/10/15 09:29:48;;;;;;;7.68;4.47;;;;;;;;;;5054720;28;20031;-74
2021/10/15 09:32:15;;;;;;;8.90;3.88;;;;;;;;;;5054242;28;20051;-75
2021/10/15 09:34:41;;;;;;;10.50;5.57;;;;;;;;;;5054074;28;20025;-77
2021/10/15 09:37:13;;;;;;;10.07;4.63;;;;;;;;;;5054058;28;20029;-75
2021/10/15 09:39:39;;;;;;;8.40;4.07;;;;;;;;;;5053873;28;20024;-77
2021/10/15 09:42:15;;;;;;;9.40;5.07;;;;;;;;;;5054317;28;20393;-75
2021/10/15 09:44:42;;;;;;;8.13;4.65;;;;;;;;;;5054184;28;20028;-76
2021/10/15 09:47:18;;;;;;;9.20;5.18;;;;;;;;;;5059297;28;20075;-74
2021/10/15 09:49:55;;;;;;;11.68;5.72;;;;;;;;;;5058610;28;20406;-74
2021/10/15 09:52:35;;;;;;;9.00;4.45;;;;;;;;;;5052764;28;20057;-74
2021/10/15 09:55:06;;;;;;;8.18;4.13;;;;;;;;;;5053890;28;20059;-75
2021/10/15 09:57:33;;;;;;;6.80;3.90;;;;;;;;;;5052414;28;20387;-75
2021/10/15 10:00:00;;;;;;;8.68;4.10;;;;;;;;;;5054275;28;20147;-73
2021/10/15 10:02:27;;;;;;;7.20;3.58;;;;;;;;;;5052342;28;20119;-70
2021/10/15 10:04:55;;;;;;;5.97;3.38;;;;;;;;;;5052146;28;20394;-72
2021/10/15 10:07:22;;;;;;;9.88;5.57;;;;;;;;;;5053995;28;20036;-74
2021/10/15 10:09:48;;;;;;;13.48;7.35;;;;;;;;;;5052405;28;20474;-75
2021/10/15 10:12:15;;;;;;;11.73;6.00;;;;;;;;;;5053535;28;20040;-74
2021/10/15 10:14:41;;;;;;;10.93;6.72;;;;;;;;;;5053528;28;20071;-75
2021/10/15 10:17:09;;;;;;;12.68;8.00;;;;;;;;;;5053353;28;20037;-73
2021/10/15 10:19:37;;;;;;;13.35;8.43;;;;;;;;;;5053529;28;20053;-71
2021/10/15 10:22:04;;;;;;;14.70;6.75;;;;;;;;;;5051576;28;20515;-75
2021/10/15 10:24:31;;;;;;;10.23;5.45;;;;;;;;;;5053411;28;20025;-74
2021/10/15 10:26:59;;;;;;;12.40;6.57;;;;;;;;;;5053574;28;20524;-74
2021/10/15 10:29:25;;;;;;;12.73;5.97;;;;;;;;;;5051927;28;20154;-76
2021/10/15 10:31:53;;;;;;;14.25;7.65;;;;;;;;;;5053601;28;20541;-75
2021/10/15 10:34:24;;;;;;;7.60;4.40;;;;;;;;;;5053018;28;20029;-75
2021/10/15 10:37:07;;;;;;;16.52;9.38;;;;;;;;;;5053609;28;20037;-79
2021/10/15 10:39:35;;;;;;;12.60;7.82;;;;;;;;;;5053499;28;20017;-79
2021/10/15 10:42:02;;;;;;;14.05;8.45;;;;;;;;;;5053662;28;20025;-78
2021/10/15 10:44:28;;;;;;;11.43;6.72;;;;;;;;;;5053809;28;20486;-77
2021/10/15 10:47:15;;;;;;;9.23;5.05;;;;;;;;;;5053649;28;20074;-77
2021/10/15 10:49:43;;;;;;;12.32;6.78;;;;;;;;;;5054066;28;20025;-75
2021/10/15 10:52:11;;;;;;;11.63;5.93;;;;;;;;;;5053050;28;20447;-73
2021/10/15 10:54:37;;;;;;;10.70;5.55;;;;;;;;;;5051885;28;20021;-76
2021/10/15 11:03:10;;;;;;;11.07;6.07;;;;;;;;;;5052190;28;20471;-74
2021/10/15 11:05:39;;;;;;;10.63;5.90;;;;;;;;;;5051903;28;20163;-72
2021/10/15 11:08:23;;;;;;;10.90;5.25;;;;;;;;;;5050864;28;20025;-74
2021/10/15 11:10:54;;;;;;;10.70;6.30;;;;;;;;;;5052639;28;20028;-76
2021/10/15 11:13:46;;;;;;;11.98;6.45;;;;;;;;;;5052014;28;20513;-74
2021/10/15 11:16:30;;;;;;;12.45;7.10;;;;;;;;;;5048862;28;20437;-74
2021/10/15 11:18:57;;;;;;;9.65;4.93;;;;;;;;;;5052546;28;20412;-74
2021/10/15 11:21:23;;;;;;;10.73;5.53;;;;;;;;;;5052196;28;20025;-74
2021/10/15 11:23:52;;;;;;;18.67;8.80;;;;;;;;;;5051069;28;20451;-77
2021/10/15 11:26:18;;;;;;;14.82;8.00;;;;;;;;;;5052354;28;20114;-74
2021/10/15 11:28:44;;;;;;;12.23;6.70;;;;;;;;;;5052620;28;20108;-70
2021/10/15 11:31:12;;;;;;;13.82;6.65;;;;;;;;;;5050958;28;20478;-72
2021/10/15 11:33:39;;;;;;;25.08;13.35;;;;;;;;;;5054420;28;20487;-75
2021/10/15 11:36:06;;;;;;;20.05;11.45;;;;;;;;;;5054982;28;20032;-75
2021/10/15 11:38:32;;;;;;;15.07;8.40;;;;;;;;;;5056688;28;20025;-72
2021/10/15 11:40:59;;;;;;;12.93;7.57;;;;;;;;;;5056935;28;20366;-76
2021/10/15 11:43:33;;;;;;;10.93;5.32;;;;;;;;;;5057090;28;20024;-76
2021/10/15 11:46:01;;;;;;;14.77;8.18;;;;;;;;;;5055638;28;20024;-75
2021/10/15 11:48:36;;;;;;;16.63;8.60;;;;;;;;;;5055448;28;20017;-73
2021/10/15 11:51:04;;;;;;;12.40;6.32;;;;;;;;;;5055939;28;20025;-74
2021/10/15 11:53:32;;;;;;;13.88;6.93;;;;;;;;;;5055905;28;20023;-75
2021/10/15 11:55:58;;;;;;;11.63;6.60;;;;;;;;;;5056002;28;20045;-74
2021/10/15 11:58:25;;;;;;;11.57;5.70;;;;;;;;;;5055650;28;20104;-76
2021/10/15 12:00:54;;;;;;;16.10;7.28;;;;;;;;;;5056041;28;20382;-76
2021/10/15 12:03:28;;;;;;;14.23;6.82;;;;;;;;;;5054660;28;20029;-74
2021/10/15 12:05:55;;;;;;;11.27;6.63;;;;;;;;;;5055687;28;20406;-73
2021/10/15 12:08:23;;;;;;;14.15;6.38;;;;;;;;;;5054707;28;20029;-74
2021/10/15 12:10:50;;;;;;;16.33;7.95;;;;;;;;;;5055666;28;20517;-75
2021/10/15 12:13:16;;;;;;;24.52;10.35;;;;;;;;;;5055495;28;20021;-74
2021/10/15 12:15:42;;;;;;;17.85;7.30;;;;;;;;;;5055292;28;20037;-79
2021/10/15 12:18:09;;;;;;;21.92;11.40;;;;;;;;;;5055580;28;20025;-76
2021/10/15 12:20:36;;;;;;;12.10;6.63;;;;;;;;;;5054487;28;20382;-76
2021/10/15 12:23:03;;;;;;;16.52;8.32;;;;;;;;;;5054081;28;20020;-76
2021/10/15 12:25:29;;;;;;;17.58;8.57;;;;;;;;;;5055643;28;20018;-74
2021/10/15 12:27:56;;;;;;;12.93;5.97;;;;;;;;;;5055043;28;20028;-75
2021/10/15 12:30:25;;;;;;;17.90;7.57;;;;;;;;;;5055065;28;20028;-77
2021/10/15 12:32:55;;;;;;;14.93;7.38;;;;;;;;;;5055393;28;20035;-78
2021/10/15 12:35:25;;;;;;;16.52;7.35;;;;;;;;;;5055718;28;20107;-78
2021/10/15 12:37:51;;;;;;;18.83;9.88;;;;;;;;;;5055299;28;20056;-74
2021/10/15 12:40:24;;;;;;;21.38;10.75;;;;;;;;;;5055469;28;20455;-75
2021/10/15 12:42:50;;;;;;;18.85;8.88;;;;;;;;;;5055182;28;20025;-74
2021/10/15 12:45:17;;;;;;;22.10;10.63;;;;;;;;;;5054562;28;20021;-75
2021/10/15 12:48:03;;;;;;;21.80;9.93;;;;;;;;;;5054895;28;20032;-76
2021/10/15 12:50:31;;;;;;;35.72;15.02;;;;;;;;;;5055034;28;20139;-70
2021/10/15 12:52:57;;;;;;;26.23;10.30;;;;;;;;;;5053513;28;20386;-71
2021/10/15 12:55:25;;;;;;;16.52;8.25;;;;;;;;;;5054171;28;20025;-70
2021/10/15 12:58:00;;;;;;;13.23;7.38;;;;;;;;;;5053333;28;20033;-76
2021/10/15 13:00:27;;;;;;;13.60;6.95;;;;;;;;;;5053728;28;20470;-74
2021/10/15 13:06:22;;;;;;;14.32;6.20;;;;;;;;;;5040443;28;20069;-75
2021/10/15 13:08:52;;;;;;;11.50;5.57;;;;;;;;;;5015729;28;20405;-74
2021/10/15 13:11:22;;;;;;;10.32;4.78;;;;;;;;;;5015196;28;20030;-76
2021/10/15 13:13:49;;;;;;;9.75;5.50;;;;;;;;;;5015292;28;20488;-75
2021/10/15 13:16:16;;;;;;;13.18;7.20;;;;;;;;;;5013936;28;20487;-75
2021/10/15 13:18:43;;;;;;;15.15;6.75;;;;;;;;;;5015222;28;20096;-75
2021/10/15 13:21:09;;;;;;;12.52;6.75;;;;;;;;;;5013988;28;20030;-75
2021/10/15 13:23:36;;;;;;;12.82;7.03;;;;;;;;;;5027312;28;20443;-75
2021/10/15 13:26:02;;;;;;;12.63;5.68;;;;;;;;;;5030663;28;20029;-75
2021/10/15 13:28:28;;;;;;;12.80;6.85;;;;;;;;;;5017996;28;20468;-75
2021/10/15 13:30:54;;;;;;;16.80;8.43;;;;;;;;;;5015476;28;20018;-75
2021/10/15 13:33:21;;;;;;;19.95;10.65;;;;;;;;;;5015844;28;20037;-76
2021/10/15 13:35:50;;;;;;;17.38;9.48;;;;;;;;;;5016083;28;20156;-77
2021/10/15 13:38:20;;;;;;;15.32;8.05;;;;;;;;;;5015818;28;20018;-76
2021/10/15 13:40:56;;;;;;;15.10;7.80;;;;;;;;;;5015983;28;20025;-76
2021/10/15 13:51:27;;;;;;;16.10;8.27;;;;;;;;;;5015148;28;20029;-76
2021/10/15 13:53:54;;;;;;;19.65;10.70;;;;;;;;;;5015198;28;20105;-75
2021/10/15 13:56:20;;;;;;;16.80;9.77;;;;;;;;;;5013715;28;20041;-76
2021/10/15 13:58:51;;;;;;;16.17;10.23;;;;;;;;;;5014884;28;20022;-76
2021/10/15 14:01:29;;;;;;;20.00;8.20;;;;;;;;;;5014897;28;20108;-76
2021/10/15 14:06:24;;;;;;;19.88;12.23;;;;;;;;;;5015275;28;20388;-76
2021/10/15 14:08:51;;;;;;;16.08;8.80;;;;;;;;;;5052992;28;20029;-77
2021/10/15 14:11:18;;;;;;;18.17;10.18;;;;;;;;;;5054671;28;20501;-74
2021/10/15 14:13:45;;;;;;;14.63;7.68;;;;;;;;;;5054833;28;20032;-75
2021/10/15 14:16:18;;;;;;;10.63;5.70;;;;;;;;;;5054459;28;20068;-75
2021/10/15 14:18:44;;;;;;;12.60;7.38;;;;;;;;;;5054879;28;20103;-75
2021/10/15 14:21:10;;;;;;;18.38;10.73;;;;;;;;;;5054500;28;20059;-75
2021/10/15 14:23:38;;;;;;;23.63;11.35;;;;;;;;;;5053534;28;20021;-74
2021/10/15 14:26:05;;;;;;;14.05;7.55;;;;;;;;;;5054295;28;20091;-76
2021/10/15 14:28:32;;;;;;;15.45;8.35;;;;;;;;;;5054299;28;20429;-73
2021/10/15 14:30:58;;;;;;;11.93;6.90;;;;;;;;;;5052855;28;20053;-76
2021/10/15 14:33:25;;;;;;;21.73;9.77;;;;;;;;;;5053758;28;20021;-75
2021/10/15 14:35:51;;;;;;;19.50;10.10;;;;;;;;;;5053994;28;20033;-77
2021/10/15 14:38:17;;;;;;;15.05;8.30;;;;;;;;;;5052702;28;20024;-77
2021/10/15 14:40:46;;;;;;;21.90;12.10;;;;;;;;;;5054497;28;20497;-77
2021/10/15 14:43:12;;;;;;;17.05;8.65;;;;;;;;;;5053946;28;20056;-75
2021/10/15 14:45:39;;;;;;;13.38;7.43;;;;;;;;;;5053910;28;20032;-75
2021/10/15 14:48:05;;;;;;;18.48;9.73;;;;;;;;;;5054304;28;20028;-76
2021/10/15 14:50:32;;;;;;;19.13;10.95;;;;;;;;;;5054248;28;20474;-76
2021/10/15 14:52:58;;;;;;;13.57;8.52;;;;;;;;;;5053815;28;20055;-78
2021/10/15 14:55:26;;;;;;;10.73;6.63;;;;;;;;;;5053920;28;20029;-77
2021/10/15 14:57:53;;;;;;;12.80;6.90;;;;;;;;;;5053618;28;20072;-78
2021/10/15 15:00:19;;;;;;;14.13;8.50;;;;;;;;;;5053539;28;20079;-76
2021/10/15 15:02:45;;;;;;;12.18;6.47;;;;;;;;;;5053612;28;20021;-77
2021/10/15 15:05:12;;;;;;;12.40;6.97;;;;;;;;;;5053343;28;20025;-78
2021/10/15 15:07:38;;;;;;;14.52;9.05;;;;;;;;;;5052903;28;20043;-75
2021/10/15 15:10:05;;;;;;;14.73;8.45;;;;;;;;;;5053189;28;20021;-77
2021/10/15 15:12:31;;;;;;;14.07;7.40;;;;;;;;;;5053165;28;20025;-76
2021/10/15 15:14:57;;;;;;;11.10;6.90;;;;;;;;;;5053024;28;20024;-76